createdAt,value
2022-12-14T00:00:05.148Z,34.28
2022-12-14T00:05:06.897Z,38.50
2022-12-14T00:10:08.983Z,41.03
2022-12-14T00:15:10.546Z,37.38
2022-12-14T00:20:12.068Z,35.17
2022-12-14T00:25:13.779Z,33.90
2022-12-14T00:30:19.047Z,39.33
2022-12-14T00:35:20.482Z,29.17
2022-12-14T00:40:21.896Z,34.72
2022-12-14T00:45:23.325Z,28.23
2022-12-14T00:50:24.737Z,26.77
2022-12-14T00:55:26.691Z,28.52
2022-12-14T01:00:28.103Z,28.05
2022-12-14T01:05:29.624Z,36.83
2022-12-14T01:10:31.081Z,28.95
2022-12-14T01:15:35.134Z,32.08
2022-12-14T01:20:36.627Z,33.42
2022-12-14T01:25:38.070Z,31.40
2022-12-14T01:30:39.765Z,31.90
2022-12-14T01:35:41.209Z,31.38
2022-12-14T01:40:42.636Z,27.85
2022-12-14T01:45:44.056Z,29.75
2022-12-14T01:50:46.241Z,26.08
2022-12-14T01:55:52.496Z,29.30
2022-12-14T02:00:57.501Z,37.97
2022-12-14T02:06:17.987Z,33.53
2022-12-14T02:11:31.398Z,25.33
2022-12-14T02:16:32.995Z,28.50
2022-12-14T02:22:08.007Z,31.52
2022-12-14T02:27:25.904Z,27.33
2022-12-14T02:32:39.463Z,36.03
2022-12-14T02:38:11.833Z,41.65
2022-12-14T02:43:30.036Z,31.48
2022-12-14T02:48:39.382Z,26.65
2022-12-14T02:54:04.088Z,25.85
2022-12-14T02:59:08.573Z,26.08
2022-12-14T03:04:10.896Z,31.30
2022-12-14T03:09:18.285Z,27.63
2022-12-14T03:14:27.369Z,32.22
2022-12-14T03:19:41.488Z,29.10
2022-12-14T03:24:48.872Z,31.23
2022-12-14T03:29:56.149Z,35.30
2022-12-14T03:35:07.599Z,38.58
2022-12-14T03:40:13.103Z,35.53
2022-12-14T03:45:43.312Z,36.30
2022-12-14T03:50:50.280Z,40.00
2022-12-14T03:55:54.620Z,27.08
2022-12-14T04:01:18.598Z,30.45
2022-12-14T04:06:44.285Z,34.13
2022-12-14T04:12:12.604Z,33.65
2022-12-14T04:17:38.931Z,43.05
2022-12-14T04:22:47.204Z,30.55
2022-12-14T04:27:55.616Z,34.30
2022-12-14T04:33:25.947Z,31.88
2022-12-14T04:38:36.106Z,33.13
2022-12-14T04:43:43.327Z,33.28
2022-12-14T04:48:50.810Z,39.03
2022-12-14T04:53:59.723Z,30.20
2022-12-14T04:59:01.509Z,33.67
2022-12-14T05:04:54.860Z,35.45
2022-12-14T05:10:11.224Z,27.23
2022-12-14T05:15:13.992Z,33.80
2022-12-14T05:20:21.908Z,42.08
2022-12-14T05:25:23.376Z,31.50
2022-12-14T05:30:24.929Z,34.80
2022-12-14T05:35:26.380Z,33.72
2022-12-14T05:40:27.882Z,37.42
2022-12-14T05:45:29.350Z,39.00
2022-12-14T05:50:31.265Z,39.20
2022-12-14T05:55:32.674Z,41.25
2022-12-14T06:00:34.096Z,44.10
2022-12-14T06:05:35.875Z,40.13
2022-12-14T06:10:37.325Z,43.65
2022-12-14T06:15:38.753Z,33.22
2022-12-14T06:20:40.175Z,40.05
2022-12-14T06:25:41.580Z,41.38
2022-12-14T06:30:43.022Z,35.55
2022-12-14T06:35:47.643Z,45.30
2022-12-14T06:40:49.092Z,40.08
2022-12-14T06:45:50.475Z,31.40
2022-12-14T06:50:52.132Z,36.47
2022-12-14T06:55:53.522Z,41.72
2022-12-14T07:00:54.947Z,39.08
2022-12-14T07:06:01.153Z,36.33
2022-12-14T07:11:08.483Z,39.05
2022-12-14T07:16:16.609Z,37.28
2022-12-14T07:21:19.819Z,32.40
2022-12-14T07:26:27.536Z,35.85
2022-12-14T07:31:29.808Z,35.03
2022-12-14T07:36:32.894Z,35.22
2022-12-14T07:41:34.347Z,32.55
2022-12-14T07:46:35.844Z,37.50
2022-12-14T07:51:41.120Z,32.17
2022-12-14T07:56:43.399Z,35.65
2022-12-14T08:01:45.383Z,33.53
2022-12-14T08:06:48.707Z,38.47
2022-12-14T08:11:50.333Z,29.33
2022-12-14T08:16:51.770Z,37.50
2022-12-14T08:21:53.225Z,30.92
2022-12-14T08:26:54.724Z,29.95
2022-12-14T08:31:56.348Z,36.10
2022-12-14T08:36:57.845Z,35.97
2022-12-14T08:41:59.275Z,40.42
2022-12-14T08:47:00.789Z,35.70
2022-12-14T08:52:02.192Z,43.53
2022-12-14T08:57:04.503Z,47.08
2022-12-14T09:02:06.138Z,46.90
2022-12-14T09:07:07.621Z,41.70
2022-12-14T09:12:09.117Z,36.00
2022-12-14T09:17:10.528Z,36.00
2022-12-14T09:22:13.345Z,35.00
2022-12-14T09:27:14.832Z,44.35
2022-12-14T09:32:16.792Z,42.72
2022-12-14T09:37:18.236Z,33.10
2022-12-14T09:42:35.510Z,36.65
2022-12-14T09:47:50.263Z,36.90
2022-12-14T09:52:54.007Z,38.03
2022-12-14T09:58:00.230Z,36.92
2022-12-14T10:03:21.790Z,34.92
2022-12-14T10:08:29.789Z,36.33
2022-12-14T10:13:47.647Z,46.75
2022-12-14T10:19:08.654Z,39.70
2022-12-14T10:24:17.544Z,37.97
2022-12-14T10:29:32.317Z,39.38
2022-12-14T10:34:35.016Z,35.53
2022-12-14T10:39:49.367Z,38.65
2022-12-14T10:50:53.819Z,38.55
2022-12-14T10:56:02.006Z,41.15
2022-12-14T11:01:03.498Z,38.47
2022-12-14T11:06:17.476Z,39.67
2022-12-14T11:11:23.034Z,34.60
2022-12-14T11:16:36.359Z,35.47
2022-12-14T11:21:38.928Z,34.95
2022-12-14T11:26:42.838Z,37.70
2022-12-14T11:31:52.378Z,36.38
2022-12-14T11:36:53.932Z,34.23
2022-12-14T11:41:58.410Z,36.40
2022-12-14T11:47:00.859Z,37.42
2022-12-14T11:52:05.291Z,35.03
2022-12-14T11:57:18.127Z,34.25
2022-12-14T12:02:30.835Z,37.20
2022-12-14T12:07:36.127Z,42.63
2022-12-14T12:12:38.709Z,35.55
2022-12-14T12:17:46.622Z,32.85
2022-12-14T12:22:52.040Z,39.72
2022-12-14T12:28:03.300Z,41.83
2022-12-14T12:33:36.575Z,33.70
2022-12-14T12:38:49.604Z,35.42
2022-12-14T12:43:58.336Z,33.22
2022-12-14T12:49:07.089Z,37.45
2022-12-14T12:54:16.251Z,37.03
2022-12-14T12:59:29.932Z,37.67
2022-12-14T13:04:36.570Z,35.10
2022-12-14T13:09:49.799Z,35.03
2022-12-14T13:14:54.445Z,38.75
2022-12-14T13:19:59.504Z,38.17
2022-12-14T13:25:27.120Z,33.80
2022-12-14T13:30:34.419Z,35.25
2022-12-14T13:36:18.112Z,38.70
2022-12-14T13:41:28.581Z,30.25
2022-12-14T13:51:37.190Z,33.35
2022-12-14T13:56:40.090Z,33.85
2022-12-14T14:01:47.414Z,35.08
2022-12-14T14:06:50.503Z,41.90
2022-12-14T14:12:22.495Z,43.97
2022-12-14T14:17:30.707Z,33.03
2022-12-14T14:22:32.181Z,31.58
2022-12-14T14:27:39.564Z,32.17
2022-12-14T14:32:42.322Z,35.03
2022-12-14T14:37:55.403Z,44.65
2022-12-14T14:43:03.991Z,41.92
2022-12-14T14:48:19.603Z,40.17
2022-12-14T14:53:32.808Z,29.30
2022-12-14T14:58:38.002Z,38.42
2022-12-14T15:04:04.335Z,38.95
2022-12-14T15:09:31.495Z,32.75
2022-12-14T15:14:48.906Z,29.67
2022-12-14T15:19:58.510Z,34.80
2022-12-14T15:25:01.677Z,41.77
2022-12-14T15:30:13.993Z,115.20
2022-12-14T15:35:18.720Z,126.75
2022-12-14T15:40:26.786Z,54.65
2022-12-14T15:45:30.305Z,46.15
2022-12-14T15:50:34.328Z,36.55
2022-12-14T15:55:40.092Z,38.55
2022-12-14T16:00:52.610Z,33.47
2022-12-14T16:05:55.333Z,62.17
2022-12-14T16:11:00.545Z,48.45
2022-12-14T16:16:09.472Z,38.63
2022-12-14T16:21:29.418Z,49.17
2022-12-14T16:26:38.622Z,42.97
2022-12-14T16:31:40.226Z,45.45
2022-12-14T16:36:43.419Z,42.58
2022-12-14T16:41:56.191Z,35.47
2022-12-14T16:47:00.559Z,31.70
2022-12-14T16:52:14.231Z,31.73
2022-12-14T16:57:22.245Z,36.78
2022-12-14T17:02:29.076Z,35.15
2022-12-14T17:07:32.985Z,31.23
2022-12-14T17:12:34.528Z,33.22
2022-12-14T17:17:36.521Z,35.78
2022-12-14T17:22:38.061Z,30.15
2022-12-14T17:27:40.827Z,33.03
2022-12-14T17:32:42.801Z,34.75
2022-12-14T17:37:44.709Z,38.97
2022-12-14T17:42:53.082Z,34.53
2022-12-14T17:47:55.208Z,38.30
2022-12-14T17:52:58.130Z,40.38
2022-12-14T17:58:00.074Z,34.80
2022-12-14T18:03:02.681Z,38.05
2022-12-14T18:08:04.475Z,35.00
2022-12-14T18:13:05.971Z,33.30
2022-12-14T18:18:08.136Z,36.42
2022-12-14T18:23:14.996Z,36.75
2022-12-14T18:28:17.359Z,36.05
2022-12-14T18:33:21.939Z,37.42
2022-12-14T18:38:24.241Z,36.40
2022-12-14T18:43:28.431Z,36.20
2022-12-14T18:48:30.332Z,41.78
2022-12-14T18:53:32.887Z,47.03
2022-12-14T18:58:34.788Z,51.40
2022-12-14T19:03:36.705Z,49.88
2022-12-14T19:08:38.441Z,52.17
2022-12-14T19:13:39.879Z,64.72
2022-12-14T19:18:41.351Z,49.47
2022-12-14T19:23:43.009Z,46.20
2022-12-14T19:28:44.761Z,46.55
2022-12-14T19:33:46.181Z,44.03
2022-12-14T19:38:49.155Z,45.60
2022-12-14T19:43:51.064Z,49.42
2022-12-14T19:48:52.624Z,37.72
2022-12-14T19:53:55.056Z,43.90
2022-12-14T19:59:00.730Z,39.42
2022-12-14T20:04:02.326Z,39.50
2022-12-14T20:09:06.125Z,46.83
2022-12-14T20:14:10.213Z,39.00
2022-12-14T20:19:12.521Z,50.35
2022-12-14T20:24:14.229Z,41.15
2022-12-14T20:29:15.637Z,35.33
2022-12-14T20:34:17.348Z,39.72
2022-12-14T20:39:18.813Z,40.88
2022-12-14T20:44:20.334Z,42.60
2022-12-14T20:49:23.176Z,42.85
2022-12-14T20:54:25.732Z,43.35
2022-12-14T20:59:27.583Z,42.00
2022-12-14T21:04:28.986Z,41.83
2022-12-14T21:09:30.396Z,42.42
2022-12-14T21:14:37.767Z,41.47
2022-12-14T21:19:40.154Z,43.70
2022-12-14T21:25:02.559Z,48.80
2022-12-14T21:30:06.107Z,46.42
2022-12-14T21:35:07.903Z,55.35
2022-12-14T21:40:29.669Z,49.35
2022-12-14T21:45:31.167Z,39.40
2022-12-14T21:50:32.604Z,40.80
2022-12-14T21:55:34.038Z,38.22
2022-12-14T22:00:37.528Z,50.70
2022-12-14T22:05:39.365Z,46.70
2022-12-14T22:10:40.833Z,43.50
2022-12-14T22:15:42.292Z,36.65
2022-12-14T22:20:43.736Z,41.05
2022-12-14T22:25:49.957Z,43.95
2022-12-14T22:30:51.354Z,40.17
2022-12-14T22:35:53.067Z,36.10
2022-12-14T22:41:01.635Z,38.42
2022-12-14T22:46:03.677Z,34.78
2022-12-14T22:51:10.188Z,43.15
2022-12-14T22:56:17.684Z,40.17
2022-12-14T23:01:20.188Z,36.20
2022-12-14T23:06:21.978Z,38.80
2022-12-14T23:11:42.008Z,34.60
2022-12-14T23:17:02.208Z,38.67
2022-12-14T23:27:42.259Z,35.88
2022-12-14T23:33:02.065Z,37.95
2022-12-14T23:38:26.457Z,41.55
2022-12-14T23:43:46.394Z,42.08
2022-12-14T23:49:09.330Z,38.65
2022-12-14T23:54:33.889Z,39.92
